Time;durP1;ratioP1;P1;durP2;ratioP2;P2;SDS_P1;SDS_P2;PMS_P1;PMS_P2;Temp;Humidity;BMP_temperature;BMP_pressure;BME280_temperature;BME280_humidity;BME280_pressure;Samples;Min_cycle;Max_cycle;Signal;HPM_P1;HPM_P2
2021/09/20 00:00:33;;;;;;;3.53;2.27;;;9.90;99.90;;;;;;5027322;28;20226;-68
2021/09/20 00:03:00;;;;;;;2.40;1.93;;;9.90;99.90;;;;;;5032811;28;20321;-68
2021/09/20 00:05:27;;;;;;;2.50;2.20;;;9.90;99.90;;;;;;5021971;28;20211;-68
2021/09/20 00:07:53;;;;;;;2.47;2.10;;;9.90;99.90;;;;;;5033062;28;20218;-68
2021/09/20 00:10:20;;;;;;;2.80;2.33;;;9.90;99.90;;;;;;5033607;28;20580;-68
2021/09/20 00:12:47;;;;;;;1.93;1.80;;;9.90;99.90;;;;;;5032765;28;20207;-67
2021/09/20 00:15:14;;;;;;;2.73;2.20;;;9.90;99.90;;;;;;5032278;28;20210;-67
2021/09/20 00:17:42;;;;;;;2.90;1.93;;;9.90;99.90;;;;;;5031738;28;20230;-68
2021/09/20 00:20:11;;;;;;;2.63;2.00;;;9.90;99.90;;;;;;5032520;28;20207;-67
2021/09/20 00:22:39;;;;;;;3.70;2.53;;;9.90;99.90;;;;;;5032281;28;20214;-67
2021/09/20 00:25:07;;;;;;;2.40;2.20;;;9.90;99.90;;;;;;5032845;28;20242;-68
2021/09/20 00:27:34;;;;;;;2.27;1.77;;;9.90;99.90;;;;;;5032502;28;20209;-67
2021/09/20 00:30:01;;;;;;;2.40;2.17;;;9.90;99.90;;;;;;5032626;28;20202;-68
2021/09/20 00:32:28;;;;;;;3.83;2.30;;;9.90;99.90;;;;;;5032293;28;20202;-68
2021/09/20 00:34:56;;;;;;;2.30;2.00;;;9.90;99.90;;;;;;5032417;28;20214;-68
2021/09/20 00:37:23;;;;;;;2.70;2.00;;;9.90;99.90;;;;;;5030434;28;20230;-68
2021/09/20 00:39:50;;;;;;;3.17;2.10;;;9.90;99.90;;;;;;5031931;28;20203;-68
2021/09/20 00:42:16;;;;;;;3.17;2.53;;;9.90;99.90;;;;;;5032447;28;20542;-68
2021/09/20 00:44:43;;;;;;;3.50;2.03;;;9.90;99.90;;;;;;5033080;28;20217;-68
2021/09/20 00:47:10;;;;;;;2.43;2.03;;;9.90;99.90;;;;;;5031803;28;20256;-69
2021/09/20 00:49:37;;;;;;;2.63;2.20;;;9.90;99.90;;;;;;5032765;28;20216;-67
2021/09/20 00:52:05;;;;;;;3.17;2.23;;;9.90;99.90;;;;;;5031643;28;20203;-69
2021/09/20 00:54:33;;;;;;;2.43;2.07;;;9.70;99.90;;;;;;5032490;28;20215;-68
2021/09/20 00:57:00;;;;;;;2.33;1.87;;;9.90;99.90;;;;;;5032425;28;20211;-67
2021/09/20 00:59:27;;;;;;;2.10;1.90;;;9.90;99.90;;;;;;5031744;28;20667;-68
2021/09/20 01:01:54;;;;;;;1.83;1.67;;;9.90;99.90;;;;;;5032056;28;20666;-68
2021/09/20 01:04:21;;;;;;;2.20;2.00;;;9.90;99.90;;;;;;5032414;28;20675;-67
2021/09/20 01:06:48;;;;;;;3.80;2.10;;;9.90;99.90;;;;;;5032029;28;20214;-68
2021/09/20 01:09:17;;;;;;;2.53;1.90;;;9.90;99.90;;;;;;5032128;28;20648;-69
2021/09/20 01:11:44;;;;;;;2.60;2.33;;;9.80;99.90;;;;;;5031777;28;20268;-67
2021/09/20 01:14:11;;;;;;;3.13;1.83;;;9.90;99.90;;;;;;5031363;28;20214;-68
2021/09/20 01:16:38;;;;;;;3.30;2.07;;;9.90;99.90;;;;;;5032009;28;20217;-68
2021/09/20 01:19:05;;;;;;;2.27;1.83;;;9.80;99.90;;;;;;5031498;28;20230;-68
2021/09/20 01:21:31;;;;;;;2.40;1.80;;;9.80;99.90;;;;;;5031476;28;20223;-68
2021/09/20 01:23:59;;;;;;;2.07;1.80;;;9.80;99.90;;;;;;5032123;28;20222;-68
2021/09/20 01:26:26;;;;;;;1.97;1.60;;;9.90;99.90;;;;;;5031825;28;20242;-68
2021/09/20 01:28:53;;;;;;;2.30;1.67;;;9.80;99.90;;;;;;5029351;28;20207;-69
2021/09/20 01:31:20;;;;;;;2.60;1.70;;;9.80;99.90;;;;;;5030942;28;20214;-68
2021/09/20 01:33:47;;;;;;;1.57;1.47;;;9.80;99.90;;;;;;5032257;28;20221;-68
2021/09/20 01:36:14;;;;;;;1.80;1.50;;;9.80;99.90;;;;;;5031858;28;20239;-67
2021/09/20 01:38:40;;;;;;;1.63;1.40;;;9.80;99.90;;;;;;5031735;28;20234;-68
2021/09/20 01:41:09;;;;;;;1.90;1.70;;;9.80;99.90;;;;;;5030952;28;20229;-68
2021/09/20 01:43:35;;;;;;;2.93;1.63;;;9.80;99.90;;;;;;5031934;28;20209;-67
2021/09/20 01:46:02;;;;;;;2.07;1.87;;;9.80;99.90;;;;;;5020051;28;20207;-69
2021/09/20 01:48:29;;;;;;;2.23;1.60;;;9.80;99.90;;;;;;5028616;28;20574;-68
2021/09/20 01:50:56;;;;;;;2.13;1.70;;;9.80;99.90;;;;;;5030416;28;20218;-68
2021/09/20 01:53:22;;;;;;;1.70;1.60;;;9.90;99.90;;;;;;5030900;28;20563;-68
2021/09/20 01:55:50;;;;;;;2.83;1.50;;;9.80;99.90;;;;;;5030796;28;20209;-68
2021/09/20 01:58:19;;;;;;;2.07;1.50;;;9.80;99.90;;;;;;5030735;28;20592;-68
2021/09/20 02:00:47;;;;;;;1.70;1.50;;;9.80;99.90;;;;;;5034950;28;20220;-68
2021/09/20 02:03:14;;;;;;;2.83;1.40;;;9.80;99.90;;;;;;5035256;28;20292;-69
2021/09/20 02:05:41;;;;;;;1.47;1.37;;;9.80;99.90;;;;;;5034926;28;20222;-68
2021/09/20 02:08:09;;;;;;;2.20;1.60;;;9.80;99.90;;;;;;5035567;28;20198;-68
2021/09/20 02:10:36;;;;;;;2.07;1.87;;;9.80;99.90;;;;;;5034959;28;20214;-68
2021/09/20 02:13:03;;;;;;;1.60;1.30;;;9.80;99.90;;;;;;5034956;28;20207;-68
2021/09/20 02:15:31;;;;;;;1.40;1.30;;;9.80;99.90;;;;;;5035584;28;20700;-68
2021/09/20 02:17:58;;;;;;;1.50;1.40;;;9.80;99.90;;;;;;5034602;28;20226;-68
2021/09/20 02:20:24;;;;;;;2.73;1.50;;;9.70;99.90;;;;;;5024761;28;20671;-68
2021/09/20 02:22:51;;;;;;;1.90;1.70;;;9.70;99.90;;;;;;5031865;28;20221;-69
2021/09/20 02:25:20;;;;;;;1.57;1.20;;;9.70;99.90;;;;;;5034697;28;20604;-68
2021/09/20 02:27:47;;;;;;;1.53;1.43;;;9.70;99.90;;;;;;5034970;28;20225;-68
2021/09/20 02:30:14;;;;;;;1.40;1.20;;;9.70;99.90;;;;;;5034932;28;20221;-67
2021/09/20 02:32:42;;;;;;;2.77;1.70;;;9.70;99.90;;;;;;5034775;28;20588;-68
2021/09/20 02:35:10;;;;;;;1.43;1.33;;;9.70;99.90;;;;;;5034337;28;20616;-67
2021/09/20 02:37:37;;;;;;;2.50;1.67;;;9.70;99.90;;;;;;5034180;28;20231;-68
2021/09/20 02:40:06;;;;;;;1.90;1.53;;;9.60;99.90;;;;;;5034692;28;20614;-68
2021/09/20 02:42:32;;;;;;;2.20;1.70;;;9.60;99.90;;;;;;5034679;28;20559;-68
2021/09/20 02:44:59;;;;;;;2.80;1.73;;;9.60;99.90;;;;;;5034646;28;20203;-68
2021/09/20 02:47:26;;;;;;;1.97;1.70;;;9.60;99.90;;;;;;5035011;28;20202;-67
2021/09/20 02:49:54;;;;;;;1.40;1.30;;;9.60;99.90;;;;;;5034185;28;20210;-68
2021/09/20 02:52:21;;;;;;;3.20;1.83;;;9.60;99.90;;;;;;5020378;28;20203;-68
2021/09/20 02:54:48;;;;;;;1.60;1.50;;;9.60;99.90;;;;;;5033910;28;20571;-69
2021/09/20 02:57:15;;;;;;;1.73;1.53;;;9.60;99.90;;;;;;5032778;28;20210;-68
2021/09/20 02:59:41;;;;;;;2.73;1.70;;;9.60;99.90;;;;;;5022439;28;20235;-68
2021/09/20 03:02:08;;;;;;;2.03;1.77;;;9.60;99.90;;;;;;5034002;28;20209;-68
2021/09/20 03:04:35;;;;;;;1.60;1.50;;;9.60;99.90;;;;;;5034203;28;20215;-68
2021/09/20 03:07:03;;;;;;;3.47;1.60;;;9.60;99.90;;;;;;5034262;28;20210;-67
2021/09/20 03:09:30;;;;;;;1.83;1.33;;;9.60;99.90;;;;;;5034791;28;20194;-68
2021/09/20 03:11:57;;;;;;;3.00;1.77;;;9.60;99.90;;;;;;5032731;28;20655;-68
2021/09/20 03:14:24;;;;;;;3.00;1.60;;;9.60;99.90;;;;;;5033771;28;20218;-69
2021/09/20 03:16:50;;;;;;;1.70;1.60;;;9.60;99.90;;;;;;5033197;28;20207;-69
2021/09/20 03:19:17;;;;;;;1.70;1.60;;;9.50;99.90;;;;;;5033848;28;20640;-69
2021/09/20 03:21:44;;;;;;;1.80;1.40;;;9.50;99.90;;;;;;5033688;28;20211;-69
2021/09/20 03:24:12;;;;;;;1.50;1.40;;;9.50;99.90;;;;;;5033505;28;20207;-68
2021/09/20 03:26:39;;;;;;;1.43;1.33;;;9.50;99.90;;;;;;5032997;28;20234;-69
2021/09/20 03:29:06;;;;;;;1.40;1.30;;;9.50;99.90;;;;;;5034020;28;20209;-68
2021/09/20 03:31:33;;;;;;;2.53;1.67;;;9.50;99.90;;;;;;5033075;28;20215;-69
2021/09/20 03:34:00;;;;;;;2.23;1.63;;;9.50;99.90;;;;;;5033858;28;20217;-68
2021/09/20 03:36:27;;;;;;;1.50;1.40;;;9.50;99.90;;;;;;5033711;28;20608;-68
2021/09/20 03:38:54;;;;;;;1.83;1.53;;;9.50;99.90;;;;;;5033153;28;20317;-68
2021/09/20 03:41:22;;;;;;;4.17;2.07;;;9.50;99.90;;;;;;5019102;28;20226;-68
2021/09/20 03:43:49;;;;;;;1.37;1.27;;;9.60;99.90;;;;;;5033657;28;20514;-68
2021/09/20 03:46:15;;;;;;;1.67;1.57;;;9.50;99.90;;;;;;5033916;28;20576;-69
2021/09/20 03:48:42;;;;;;;1.93;1.67;;;9.50;99.90;;;;;;5033895;28;20214;-68
2021/09/20 03:51:09;;;;;;;1.57;1.40;;;9.50;99.90;;;;;;5033894;28;20230;-69
2021/09/20 03:53:36;;;;;;;2.90;1.40;;;9.50;99.90;;;;;;5033711;28;20206;-69
2021/09/20 03:56:03;;;;;;;1.63;1.53;;;9.50;99.90;;;;;;5032656;28;20207;-68
2021/09/20 03:58:31;;;;;;;1.57;1.47;;;9.50;99.90;;;;;;5033801;28;20227;-69
2021/09/20 04:00:58;;;;;;;1.40;0.97;;;9.60;99.90;;;;;;5033292;28;20458;-68
2021/09/20 04:03:25;;;;;;;2.23;1.70;;;9.50;99.90;;;;;;5033534;28;20214;-69
2021/09/20 04:05:51;;;;;;;2.47;1.73;;;9.50;99.90;;;;;;5032402;28;20214;-69
2021/09/20 04:08:18;;;;;;;1.67;1.47;;;9.50;99.90;;;;;;5032625;28;20206;-67
2021/09/20 04:10:45;;;;;;;1.70;1.20;;;9.50;99.90;;;;;;5032425;28;20242;-67
2021/09/20 04:13:12;;;;;;;2.57;1.10;;;9.50;99.90;;;;;;5032428;28;20671;-68
2021/09/20 04:15:40;;;;;;;1.37;1.27;;;9.50;99.90;;;;;;5032585;28;20203;-68
2021/09/20 04:18:07;;;;;;;1.50;1.20;;;9.50;99.90;;;;;;5032185;28;20675;-68
2021/09/20 04:20:34;;;;;;;2.23;1.37;;;9.50;99.90;;;;;;5031423;28;20214;-68
2021/09/20 04:23:01;;;;;;;2.40;1.60;;;9.60;99.90;;;;;;5033067;28;20214;-68
2021/09/20 04:25:27;;;;;;;4.27;1.50;;;9.60;99.90;;;;;;5032161;28;20605;-68
2021/09/20 04:27:54;;;;;;;1.30;1.20;;;9.60;99.90;;;;;;5031962;28;20623;-67
2021/09/20 04:30:21;;;;;;;1.73;1.40;;;9.60;99.90;;;;;;5032190;28;20210;-68
2021/09/20 04:32:50;;;;;;;2.23;1.40;;;9.60;99.90;;;;;;5031965;28;20211;-68
2021/09/20 04:35:16;;;;;;;2.10;1.60;;;9.60;99.90;;;;;;5026740;28;20218;-68
2021/09/20 04:37:43;;;;;;;1.40;1.10;;;9.50;99.90;;;;;;5032000;28;20227;-68
2021/09/20 04:40:12;;;;;;;2.33;1.40;;;9.50;99.90;;;;;;5032106;28;20705;-67
2021/09/20 04:42:38;;;;;;;2.03;1.50;;;9.50;99.90;;;;;;5032503;28;20214;-68
2021/09/20 04:45:06;;;;;;;2.33;1.23;;;9.50;99.90;;;;;;5032430;28;20221;-69
2021/09/20 04:47:33;;;;;;;1.20;1.00;;;9.50;99.90;;;;;;5032276;28;20221;-69
2021/09/20 04:50:02;;;;;;;1.10;1.00;;;9.50;99.90;;;;;;5029686;28;20565;-68
2021/09/20 04:52:29;;;;;;;3.50;1.30;;;9.50;99.90;;;;;;5029926;28;20293;-68
2021/09/20 04:54:55;;;;;;;5.20;1.27;;;9.50;99.90;;;;;;5031497;28;20214;-68
2021/09/20 04:57:22;;;;;;;1.20;0.93;;;9.50;99.90;;;;;;5031864;28;20666;-68
2021/09/20 04:59:49;;;;;;;0.80;0.80;;;9.50;99.90;;;;;;5031612;28;20219;-67
2021/09/20 05:02:16;;;;;;;1.27;1.17;;;9.50;99.90;;;;;;5031550;28;20209;-69
2021/09/20 05:04:42;;;;;;;1.40;1.10;;;9.50;99.90;;;;;;5031739;28;20211;-67
2021/09/20 05:07:10;;;;;;;2.40;1.30;;;9.40;99.90;;;;;;5032576;28;20217;-69
2021/09/20 05:09:37;;;;;;;1.20;1.10;;;9.50;99.90;;;;;;5032360;28;20202;-68
2021/09/20 05:12:05;;;;;;;1.10;0.80;;;9.50;99.90;;;;;;5031666;28;20217;-68
2021/09/20 05:14:31;;;;;;;1.70;1.43;;;9.40;99.90;;;;;;5031730;28;20214;-68
2021/09/20 05:16:58;;;;;;;1.73;1.40;;;9.50;99.90;;;;;;5031278;28;20656;-68
2021/09/20 05:19:25;;;;;;;2.83;1.17;;;9.40;99.90;;;;;;5031470;28;20222;-68
2021/09/20 05:21:52;;;;;;;1.00;0.90;;;9.30;99.90;;;;;;5030181;28;20217;-69
2021/09/20 05:24:20;;;;;;;2.07;1.30;;;9.30;99.90;;;;;;5022915;28;20765;-68
2021/09/20 05:26:47;;;;;;;1.77;1.00;;;9.30;99.90;;;;;;5030279;28;20766;-68
2021/09/20 05:29:13;;;;;;;1.27;1.03;;;9.30;99.90;;;;;;5031977;28;20210;-69
2021/09/20 05:31:40;;;;;;;1.33;1.10;;;9.30;99.90;;;;;;5031000;28;20617;-69
2021/09/20 05:34:07;;;;;;;1.30;1.20;;;9.30;99.90;;;;;;5031320;28;20202;-68
2021/09/20 05:36:34;;;;;;;2.87;1.50;;;9.30;99.90;;;;;;5031090;28;20230;-69
2021/09/20 05:39:01;;;;;;;3.00;1.80;;;9.30;99.90;;;;;;5031082;28;20222;-69
2021/09/20 05:41:29;;;;;;;2.33;1.70;;;9.30;99.90;;;;;;5031587;28;20314;-69
2021/09/20 05:43:56;;;;;;;2.83;1.70;;;9.30;99.90;;;;;;5031164;28;20630;-68
2021/09/20 05:46:23;;;;;;;2.47;1.87;;;9.40;99.90;;;;;;5030602;28;20207;-68
2021/09/20 05:48:49;;;;;;;2.40;1.70;;;9.40;99.90;;;;;;5017320;28;20206;-68
2021/09/20 05:51:16;;;;;;;2.57;2.00;;;9.50;99.90;;;;;;5029884;28;20198;-69
2021/09/20 05:53:43;;;;;;;4.27;2.10;;;9.40;99.90;;;;;;5031293;28;20238;-69
2021/09/20 05:56:12;;;;;;;6.47;2.00;;;9.40;99.90;;;;;;5041148;28;20214;-69
2021/09/20 05:58:41;;;;;;;2.30;1.83;;;9.40;99.90;;;;;;5045704;28;20704;-68
2021/09/20 06:01:08;;;;;;;2.43;1.60;;;9.50;99.90;;;;;;5037312;28;20234;-68
2021/09/20 06:03:36;;;;;;;2.20;1.80;;;9.50;99.90;;;;;;5047135;28;20210;-70
2021/09/20 06:06:03;;;;;;;2.70;1.97;;;9.50;99.90;;;;;;5039960;28;20207;-69
2021/09/20 06:08:30;;;;;;;4.87;2.37;;;9.40;99.90;;;;;;5036982;28;20222;-69
2021/09/20 06:10:56;;;;;;;4.50;2.10;;;9.50;99.90;;;;;;5035870;28;20206;-68
2021/09/20 06:13:23;;;;;;;2.67;2.00;;;9.50;99.90;;;;;;5031300;28;20574;-68
2021/09/20 06:15:52;;;;;;;4.70;2.10;;;9.60;99.90;;;;;;5030922;28;20210;-68
2021/09/20 06:18:19;;;;;;;5.20;2.00;;;9.60;99.90;;;;;;5030126;28;20234;-68
2021/09/20 06:20:46;;;;;;;4.33;2.00;;;9.70;99.90;;;;;;5034885;28;20234;-68
2021/09/20 06:23:13;;;;;;;2.10;1.87;;;9.70;99.90;;;;;;5029955;28;20210;-68
2021/09/20 06:25:42;;;;;;;3.13;2.07;;;9.80;99.90;;;;;;5028469;28;20242;-67
2021/09/20 06:28:09;;;;;;;10.00;2.20;;;9.80;99.90;;;;;;5034671;28;20206;-68
2021/09/20 06:30:36;;;;;;;2.40;1.73;;;9.80;99.90;;;;;;5032640;28;20215;-69
2021/09/20 06:33:04;;;;;;;3.70;1.90;;;9.70;99.90;;;;;;5035825;28;20206;-68
2021/09/20 06:35:31;;;;;;;2.37;1.90;;;9.70;99.90;;;;;;5042470;28;20210;-68
2021/09/20 06:37:59;;;;;;;6.80;1.90;;;9.60;99.90;;;;;;5037871;28;20206;-68
2021/09/20 06:40:25;;;;;;;4.23;1.70;;;9.60;99.90;;;;;;5041240;28;20226;-68
2021/09/20 06:42:52;;;;;;;2.13;1.93;;;9.60;99.90;;;;;;5029207;28;20234;-68
2021/09/20 06:45:19;;;;;;;2.90;1.60;;;9.60;99.90;;;;;;5043314;28;20206;-68
2021/09/20 06:47:46;;;;;;;1.90;1.70;;;9.60;99.90;;;;;;5034338;28;20218;-68
2021/09/20 06:50:14;;;;;;;3.30;1.83;;;9.60;99.90;;;;;;5036423;28;20199;-68
2021/09/20 06:52:41;;;;;;;1.60;1.40;;;9.60;99.90;;;;;;5033698;28;20218;-68
2021/09/20 06:55:09;;;;;;;2.30;1.37;;;9.60;99.90;;;;;;5033348;28;20218;-68
2021/09/20 06:57:36;;;;;;;2.63;1.50;;;9.60;99.90;;;;;;5033772;28;20210;-69
2021/09/20 07:00:05;;;;;;;3.00;1.80;;;9.60;99.90;;;;;;5033611;28;20563;-68
2021/09/20 07:02:32;;;;;;;2.40;1.40;;;9.60;99.90;;;;;;5032885;28;20241;-68
2021/09/20 07:04:59;;;;;;;1.87;1.50;;;9.60;99.90;;;;;;5024849;28;20597;-69
2021/09/20 07:07:27;;;;;;;1.67;1.40;;;9.60;99.90;;;;;;5028438;28;20630;-70
2021/09/20 07:09:54;;;;;;;1.63;1.33;;;9.60;99.90;;;;;;5033911;28;20206;-68
2021/09/20 07:12:21;;;;;;;1.20;1.10;;;9.70;99.90;;;;;;5033856;28;20214;-68
2021/09/20 07:14:48;;;;;;;1.07;0.97;;;9.80;99.90;;;;;;5036593;28;20214;-67
2021/09/20 07:17:14;;;;;;;2.40;0.90;;;9.70;99.90;;;;;;5036249;28;20260;-68
2021/09/20 07:19:41;;;;;;;2.13;1.13;;;9.80;99.90;;;;;;5032329;28;20223;-68
2021/09/20 07:22:08;;;;;;;2.37;1.10;;;9.90;99.90;;;;;;5028909;28;20210;-68
2021/09/20 07:24:36;;;;;;;3.17;1.30;;;10.00;99.90;;;;;;5030723;28;20214;-67
2021/09/20 07:27:03;;;;;;;2.00;0.90;;;10.00;99.90;;;;;;5030377;28;20206;-69
2021/09/20 07:29:30;;;;;;;3.10;1.30;;;10.00;99.90;;;;;;5032180;28;20582;-66
2021/09/20 07:31:56;;;;;;;2.67;1.17;;;10.10;99.90;;;;;;5030456;28;20579;-66
2021/09/20 07:34:23;;;;;;;1.50;1.13;;;10.10;99.90;;;;;;5030703;28;20210;-67
2021/09/20 07:36:50;;;;;;;2.23;1.10;;;10.10;99.90;;;;;;5031557;28;20562;-67
2021/09/20 07:39:17;;;;;;;1.80;1.13;;;10.20;99.90;;;;;;5024532;28;20215;-68
2021/09/20 07:41:45;;;;;;;1.77;1.20;;;10.30;99.90;;;;;;5031763;28;20241;-68
2021/09/20 07:44:12;;;;;;;0.87;0.73;;;10.30;99.90;;;;;;5030097;28;20210;-68
2021/09/20 07:46:39;;;;;;;0.60;0.60;;;10.40;99.90;;;;;;5028581;28;20210;-68
2021/09/20 07:49:06;;;;;;;0.90;0.63;;;10.40;99.90;;;;;;5032831;28;20317;-68
2021/09/20 07:51:33;;;;;;;0.60;0.60;;;10.40;99.90;;;;;;5037038;28;20662;-68
2021/09/20 07:53:59;;;;;;;1.00;0.90;;;10.40;99.90;;;;;;5032889;28;20678;-69
2021/09/20 07:56:28;;;;;;;1.07;0.83;;;10.40;99.90;;;;;;5034369;28;20548;-69
2021/09/20 07:58:56;;;;;;;1.37;0.90;;;10.40;99.90;;;;;;5033896;28;20282;-67
2021/09/20 08:01:22;;;;;;;0.80;0.80;;;10.50;99.90;;;;;;5033121;28;20223;-68
2021/09/20 08:03:49;;;;;;;1.70;1.20;;;10.50;99.90;;;;;;5033333;28;20208;-67
2021/09/20 08:06:17;;;;;;;1.03;0.63;;;10.60;99.90;;;;;;5033322;28;20678;-68
2021/09/20 08:08:44;;;;;;;0.97;0.80;;;10.70;99.90;;;;;;5032947;28;20222;-68
2021/09/20 08:11:10;;;;;;;2.67;1.20;;;10.70;99.90;;;;;;5031837;28;20218;-67
2021/09/20 08:13:37;;;;;;;1.00;0.97;;;10.70;99.90;;;;;;5033155;28;20218;-68
2021/09/20 08:16:06;;;;;;;1.00;0.90;;;10.80;99.90;;;;;;5032903;28;20210;-68
2021/09/20 08:18:33;;;;;;;2.27;0.70;;;10.80;99.90;;;;;;5031324;28;20714;-69
2021/09/20 08:21:00;;;;;;;1.63;1.10;;;10.80;99.90;;;;;;5027468;28;20602;-68
2021/09/20 08:23:27;;;;;;;1.90;0.90;;;10.90;99.90;;;;;;5024610;28;20215;-68
2021/09/20 08:25:54;;;;;;;0.77;0.77;;;10.90;99.90;;;;;;5031805;28;20242;-68
2021/09/20 08:28:21;;;;;;;1.03;0.93;;;10.90;99.90;;;;;;5031712;28;20206;-68
2021/09/20 08:30:48;;;;;;;1.50;0.80;;;10.80;99.90;;;;;;5031445;28;20229;-68
2021/09/20 08:33:17;;;;;;;2.13;1.00;;;10.90;99.90;;;;;;5031517;28;20207;-67
2021/09/20 08:35:44;;;;;;;1.37;1.07;;;10.80;99.90;;;;;;5030954;28;20703;-69
2021/09/20 08:38:10;;;;;;;2.10;1.37;;;10.80;99.90;;;;;;5026533;28;20213;-69
2021/09/20 08:40:37;;;;;;;2.83;1.23;;;10.80;99.90;;;;;;5038989;28;20643;-68
2021/09/20 08:43:04;;;;;;;1.90;1.27;;;10.80;99.90;;;;;;5029030;28;20214;-69
2021/09/20 08:45:31;;;;;;;1.13;1.07;;;10.80;99.90;;;;;;5028089;28;20519;-68
2021/09/20 08:48:02;;;;;;;3.20;1.20;;;10.70;99.90;;;;;;5032957;28;20214;-68
2021/09/20 08:50:33;;;;;;;1.83;1.10;;;10.60;99.90;;;;;;5035007;28;20302;-67
2021/09/20 08:53:01;;;;;;;1.87;1.00;;;10.60;99.90;;;;;;5041873;28;20201;-68
2021/09/20 08:55:28;;;;;;;1.57;0.80;;;10.50;99.90;;;;;;5040498;28;20210;-68
2021/09/20 08:57:56;;;;;;;3.23;0.93;;;10.50;99.90;;;;;;5040575;28;20206;-69
2021/09/20 09:00:23;;;;;;;0.83;0.83;;;10.50;99.90;;;;;;5047576;28;20617;-67
2021/09/20 09:02:49;;;;;;;1.00;1.00;;;10.50;99.90;;;;;;5043337;28;20214;-68
2021/09/20 09:05:20;;;;;;;3.37;1.13;;;10.60;99.90;;;;;;5033165;28;20478;-67
2021/09/20 09:07:50;;;;;;;2.53;1.37;;;10.60;99.90;;;;;;5042695;28;20209;-68
2021/09/20 09:10:18;;;;;;;1.47;1.00;;;10.60;99.90;;;;;;5037817;28;20546;-67
2021/09/20 09:12:45;;;;;;;1.23;1.10;;;10.60;99.90;;;;;;5033487;28;20206;-67
2021/09/20 09:15:14;;;;;;;0.80;0.80;;;10.60;99.90;;;;;;5041305;28;20202;-68
2021/09/20 09:17:47;;;;;;;1.23;1.13;;;10.60;99.90;;;;;;5040172;28;20222;-68
2021/09/20 09:20:15;;;;;;;1.10;0.90;;;10.60;99.90;;;;;;5039888;28;20229;-67
2021/09/20 09:22:49;;;;;;;1.43;1.33;;;10.60;99.90;;;;;;5043289;28;20199;-67
2021/09/20 09:25:19;;;;;;;1.10;1.00;;;10.60;99.90;;;;;;5049433;28;20263;-67
2021/09/20 09:27:49;;;;;;;1.30;1.03;;;10.70;99.90;;;;;;5039393;28;20302;-68
2021/09/20 09:30:19;;;;;;;1.57;1.47;;;10.60;99.90;;;;;;5045787;28;20213;-69
2021/09/20 09:32:48;;;;;;;2.27;1.53;;;10.60;99.90;;;;;;5050499;28;20206;-67
2021/09/20 09:35:17;;;;;;;2.17;1.03;;;10.50;99.90;;;;;;5044825;28;20202;-67
2021/09/20 09:37:47;;;;;;;1.50;1.03;;;10.50;99.90;;;;;;5029140;28;20719;-68
2021/09/20 09:40:19;;;;;;;1.27;1.17;;;10.50;99.90;;;;;;5029734;28;20218;-68
2021/09/20 09:42:47;;;;;;;2.53;1.50;;;10.50;99.90;;;;;;5027205;28;20202;-67
2021/09/20 09:45:26;;;;;;;1.67;1.40;;;10.60;99.90;;;;;;5027372;28;20317;-67
2021/09/20 09:48:08;;;;;;;1.47;1.10;;;10.60;99.90;;;;;;5024473;28;20207;-67
2021/09/20 09:50:40;;;;;;;2.37;1.33;;;10.60;99.90;;;;;;5024253;28;20213;-67
2021/09/20 09:53:07;;;;;;;1.17;1.07;;;10.60;99.90;;;;;;5029280;28;20210;-68
2021/09/20 09:55:35;;;;;;;2.47;1.10;;;10.60;99.90;;;;;;5024050;28;20221;-67
2021/09/20 09:58:12;;;;;;;3.57;1.50;;;10.50;99.90;;;;;;5030917;28;20217;-68
2021/09/20 10:00:39;;;;;;;2.13;1.30;;;10.40;99.90;;;;;;5030130;28;20218;-67
2021/09/20 10:03:06;;;;;;;2.20;1.00;;;10.40;99.90;;;;;;5030501;28;20202;-67
2021/09/20 10:05:33;;;;;;;1.20;1.10;;;10.40;99.90;;;;;;5030458;28;20221;-67
2021/09/20 10:08:00;;;;;;;1.43;1.33;;;10.50;99.90;;;;;;5027747;28;20202;-67
2021/09/20 10:10:29;;;;;;;1.37;1.27;;;10.50;99.90;;;;;;5030063;28;20257;-67
2021/09/20 10:12:59;;;;;;;3.87;1.20;;;10.50;99.90;;;;;;5030006;28;20260;-67
2021/09/20 10:15:28;;;;;;;1.40;1.30;;;10.50;99.90;;;;;;5030815;28;20213;-68
2021/09/20 10:17:55;;;;;;;2.13;1.43;;;10.50;99.90;;;;;;5027719;28;20568;-68
2021/09/20 10:20:24;;;;;;;3.83;1.10;;;10.50;99.90;;;;;;5032871;28;20576;-67
2021/09/20 10:22:51;;;;;;;1.90;1.20;;;10.60;99.90;;;;;;5033777;28;20202;-67
2021/09/20 10:25:26;;;;;;;2.90;1.80;;;10.60;99.90;;;;;;5034358;28;20265;-69
2021/09/20 10:27:54;;;;;;;2.13;1.27;;;10.60;99.90;;;;;;5034341;28;20206;-67
2021/09/20 10:30:25;;;;;;;2.47;1.20;;;10.70;99.90;;;;;;5034506;28;20572;-69
2021/09/20 10:32:54;;;;;;;3.80;2.07;;;10.70;99.90;;;;;;5033782;28;20224;-68
2021/09/20 10:35:30;;;;;;;2.43;1.47;;;10.70;99.90;;;;;;5033173;28;20206;-67
2021/09/20 10:38:02;;;;;;;2.80;1.30;;;10.70;99.90;;;;;;5029325;28;20210;-68
2021/09/20 10:40:30;;;;;;;2.83;1.47;;;10.70;99.90;;;;;;5034184;28;20221;-67
2021/09/20 10:43:02;;;;;;;2.47;1.40;;;10.70;99.90;;;;;;5034736;28;20679;-68
2021/09/20 10:45:40;;;;;;;2.07;1.40;;;10.70;99.90;;;;;;5033455;28;20198;-67
2021/09/20 10:48:24;;;;;;;1.50;1.40;;;10.70;99.90;;;;;;5033534;28;20202;-68
2021/09/20 10:50:53;;;;;;;3.00;1.47;;;10.70;99.90;;;;;;5036897;28;20212;-67
2021/09/20 10:53:27;;;;;;;2.43;1.70;;;10.60;99.90;;;;;;5039801;28;20679;-68
2021/09/20 10:56:11;;;;;;;1.40;1.30;;;10.60;99.90;;;;;;5041661;28;20297;-67
2021/09/20 10:58:39;;;;;;;1.40;1.30;;;10.70;99.90;;;;;;5042672;28;20778;-68
2021/09/20 11:01:30;;;;;;;3.07;1.27;;;10.70;99.90;;;;;;5035718;28;20551;-67
2021/09/20 11:04:00;;;;;;;1.83;1.30;;;10.90;99.90;;;;;;5030783;28;20667;-68
2021/09/20 11:06:29;;;;;;;1.80;1.30;;;11.00;99.90;;;;;;5033492;28;20226;-67
2021/09/20 11:09:35;;;;;;;2.03;1.37;;;11.10;99.90;;;;;;5033950;28;20203;-69
2021/09/20 11:12:05;;;;;;;1.27;1.13;;;11.30;99.90;;;;;;5016109;28;20209;-67
2021/09/20 11:14:56;;;;;;;1.77;1.20;;;11.40;99.90;;;;;;5040420;28;20211;-67
2021/09/20 11:17:41;;;;;;;1.70;1.60;;;11.40;99.90;;;;;;5039493;28;20785;-67
2021/09/20 11:20:35;;;;;;;1.20;1.10;;;11.50;99.90;;;;;;5034971;28;20597;-67
2021/09/20 11:23:22;;;;;;;1.97;1.20;;;11.50;99.90;;;;;;5024018;28;20231;-67
2021/09/20 11:26:16;;;;;;;1.50;1.30;;;11.60;99.90;;;;;;5028452;28;20234;-68
2021/09/20 11:28:45;;;;;;;1.17;1.00;;;11.60;99.90;;;;;;5030346;28;20199;-68
2021/09/20 11:31:15;;;;;;;1.27;1.17;;;11.50;99.90;;;;;;5030291;28;20237;-68
2021/09/20 11:33:45;;;;;;;4.73;1.20;;;11.40;99.90;;;;;;5028321;28;20211;-68
2021/09/20 11:36:28;;;;;;;1.30;1.20;;;11.30;99.90;;;;;;5029906;28;20231;-68
2021/09/20 11:39:11;;;;;;;1.43;1.33;;;11.30;99.90;;;;;;5033744;28;20674;-68
2021/09/20 11:41:40;;;;;;;1.80;1.30;;;11.20;99.90;;;;;;5027983;28;20223;-69
2021/09/20 11:44:07;;;;;;;0.87;0.87;;;11.20;99.90;;;;;;5028277;28;20207;-67
2021/09/20 11:46:34;;;;;;;1.67;1.07;;;11.10;99.90;;;;;;5033492;28;20214;-68
2021/09/20 11:49:05;;;;;;;1.40;1.30;;;11.10;99.90;;;;;;5032990;28;20207;-68
2021/09/20 11:51:31;;;;;;;1.13;1.03;;;11.00;99.90;;;;;;5028182;28;20573;-67
2021/09/20 11:53:58;;;;;;;2.03;1.00;;;10.90;99.90;;;;;;5031967;28;20210;-68
2021/09/20 11:56:27;;;;;;;1.83;1.40;;;10.90;99.90;;;;;;5033102;28;20215;-67
2021/09/20 11:58:55;;;;;;;1.20;1.00;;;10.90;99.90;;;;;;5034457;28;20576;-68
2021/09/20 12:01:25;;;;;;;1.23;1.10;;;10.80;99.90;;;;;;5032186;28;20223;-67
2021/09/20 12:03:52;;;;;;;1.20;1.00;;;10.80;99.90;;;;;;5032328;28;20199;-68
2021/09/20 12:06:27;;;;;;;2.53;1.60;;;10.80;99.90;;;;;;5024242;28;20210;-67
2021/09/20 12:08:57;;;;;;;1.30;1.13;;;10.80;99.90;;;;;;5037613;28;20592;-68
2021/09/20 12:11:24;;;;;;;0.97;0.87;;;10.70;99.90;;;;;;5033713;28;20534;-67
2021/09/20 12:13:51;;;;;;;2.87;1.27;;;10.80;99.90;;;;;;5024038;28;20202;-67
2021/09/20 12:16:19;;;;;;;2.13;1.30;;;10.80;99.90;;;;;;5031533;28;20647;-69
2021/09/20 12:18:46;;;;;;;1.03;1.03;;;10.80;99.90;;;;;;5029185;28;20206;-68
2021/09/20 12:21:15;;;;;;;1.67;1.20;;;10.80;99.90;;;;;;5031166;28;20592;-68
2021/09/20 12:23:46;;;;;;;1.20;1.10;;;10.80;99.90;;;;;;5028594;28;20207;-69
2021/09/20 12:26:14;;;;;;;1.40;1.30;;;10.90;99.90;;;;;;5029127;28;20234;-67
2021/09/20 12:28:44;;;;;;;2.80;1.20;;;10.90;99.90;;;;;;5030770;28;20226;-68
2021/09/20 12:31:15;;;;;;;1.67;1.37;;;11.00;99.90;;;;;;5043036;28;20205;-67
2021/09/20 12:33:54;;;;;;;1.30;1.20;;;11.00;99.90;;;;;;5029022;28;20260;-66
2021/09/20 12:36:24;;;;;;;1.70;1.40;;;11.10;99.90;;;;;;5030720;28;20222;-67
2021/09/20 12:39:07;;;;;;;3.97;1.70;;;11.10;99.90;;;;;;5030536;28;20206;-66
2021/09/20 12:41:36;;;;;;;1.27;1.17;;;11.10;99.90;;;;;;5030779;28;20218;-67
2021/09/20 12:44:04;;;;;;;3.83;1.67;;;11.20;99.90;;;;;;5036725;28;20561;-67
2021/09/20 12:46:32;;;;;;;2.20;1.17;;;11.20;99.90;;;;;;5036069;28;20573;-67
2021/09/20 12:49:00;;;;;;;3.07;1.40;;;11.20;99.90;;;;;;5031930;28;20207;-66
2021/09/20 12:51:35;;;;;;;1.83;1.30;;;11.10;99.90;;;;;;5039845;28;20205;-68
2021/09/20 12:54:17;;;;;;;3.07;1.40;;;11.00;99.90;;;;;;5033515;28;20213;-67
2021/09/20 12:56:44;;;;;;;3.00;1.30;;;11.00;99.90;;;;;;5031652;28;20659;-67
2021/09/20 12:59:13;;;;;;;3.73;1.10;;;11.00;99.90;;;;;;5030778;28;20683;-69